createdAt,value
2022-11-16T00:02:52.825Z,17.00
2022-11-16T00:06:02.433Z,16.85
2022-11-16T00:09:04.266Z,17.90
2022-11-16T00:12:07.564Z,16.98
2022-11-16T00:18:10.194Z,17.17
2022-11-16T00:21:11.592Z,18.75
2022-11-16T00:24:15.324Z,18.30
2022-11-16T00:27:16.684Z,17.48
2022-11-16T00:30:18.154Z,17.52
2022-11-16T00:33:20.334Z,18.20
2022-11-16T00:36:21.783Z,18.88
2022-11-16T00:39:24.092Z,17.65
2022-11-16T00:42:25.448Z,18.08
2022-11-16T00:45:26.920Z,18.20
2022-11-16T00:48:28.606Z,18.13
2022-11-16T00:51:29.967Z,18.45
2022-11-16T00:54:32.077Z,18.55
2022-11-16T00:57:34.055Z,19.65
2022-11-16T01:00:35.464Z,17.58
2022-11-16T01:03:38.154Z,17.35
2022-11-16T01:06:39.537Z,17.35
2022-11-16T01:09:41.350Z,17.30
2022-11-16T01:12:45.972Z,17.70
2022-11-16T01:15:48.948Z,19.20
2022-11-16T01:18:52.496Z,18.70
2022-11-16T01:21:53.843Z,18.80
2022-11-16T01:24:55.213Z,19.58
2022-11-16T01:27:56.605Z,19.48
2022-11-16T01:31:06.284Z,19.83
2022-11-16T01:34:10.548Z,18.70
2022-11-16T01:37:12.120Z,20.30
2022-11-16T01:40:16.577Z,19.50
2022-11-16T01:43:23.178Z,19.73
2022-11-16T01:46:26.534Z,18.75
2022-11-16T01:49:34.841Z,20.15
2022-11-16T01:52:40.075Z,20.67
2022-11-16T01:55:44.447Z,20.23
2022-11-16T01:59:09.202Z,20.80
2022-11-16T02:02:10.581Z,19.23
2022-11-16T02:05:16.667Z,21.15
2022-11-16T02:08:59.819Z,20.60
2022-11-16T02:12:16.085Z,18.50
2022-11-16T02:15:50.201Z,22.17
2022-11-16T02:19:07.476Z,20.70
2022-11-16T02:22:50.450Z,19.40
2022-11-16T02:26:30.899Z,20.25
2022-11-16T02:29:45.503Z,20.08
2022-11-16T02:32:53.476Z,20.92
2022-11-16T02:35:58.957Z,20.77
2022-11-16T02:39:10.258Z,21.67
2022-11-16T02:42:17.114Z,21.10
2022-11-16T02:45:23.770Z,21.50
2022-11-16T02:48:31.042Z,21.85
2022-11-16T02:51:35.957Z,19.73
2022-11-16T02:54:37.448Z,20.27
2022-11-16T02:57:49.131Z,20.02
2022-11-16T03:01:19.102Z,20.13
2022-11-16T03:04:35.423Z,20.27
2022-11-16T03:07:52.065Z,20.83
2022-11-16T03:10:58.254Z,20.08
2022-11-16T03:14:09.392Z,20.83
2022-11-16T03:17:37.270Z,19.98
2022-11-16T03:20:39.451Z,22.30
2022-11-16T03:23:40.984Z,21.40
2022-11-16T03:26:54.558Z,21.67
2022-11-16T03:33:06.607Z,21.10
2022-11-16T03:36:23.255Z,22.00
2022-11-16T03:39:36.792Z,21.23
2022-11-16T03:42:41.836Z,21.20
2022-11-16T03:45:45.787Z,20.17
2022-11-16T03:48:47.304Z,21.52
2022-11-16T03:51:58.176Z,21.92
2022-11-16T03:54:59.661Z,21.60
2022-11-16T03:58:01.488Z,22.25
2022-11-16T04:01:03.031Z,22.60
2022-11-16T04:04:05.365Z,23.20
2022-11-16T04:07:08.444Z,21.50
2022-11-16T04:10:11.048Z,22.50
2022-11-16T04:13:15.540Z,21.75
2022-11-16T04:16:18.066Z,22.58
2022-11-16T04:19:20.168Z,22.35
2022-11-16T04:22:26.446Z,24.23
2022-11-16T04:25:34.311Z,23.63
2022-11-16T04:28:36.694Z,24.38
2022-11-16T04:31:40.147Z,23.10
2022-11-16T04:34:46.845Z,23.33
2022-11-16T04:37:48.790Z,23.27
2022-11-16T04:40:54.174Z,23.52
2022-11-16T04:43:57.911Z,23.83
2022-11-16T04:46:59.480Z,24.20
2022-11-16T04:50:01.507Z,24.98
2022-11-16T04:53:04.506Z,23.08
2022-11-16T04:56:10.847Z,24.25
2022-11-16T04:59:13.320Z,22.10
2022-11-16T05:02:14.895Z,21.88
2022-11-16T05:05:26.504Z,22.10
2022-11-16T05:08:27.996Z,23.58
2022-11-16T05:11:30.496Z,22.30
2022-11-16T05:14:33.521Z,22.98
2022-11-16T05:17:35.623Z,23.02
2022-11-16T05:20:40.078Z,23.80
2022-11-16T05:23:42.729Z,24.53
2022-11-16T05:26:47.561Z,24.05
2022-11-16T05:29:49.324Z,22.70
2022-11-16T05:32:53.265Z,23.55
2022-11-16T05:35:56.174Z,22.23
2022-11-16T05:38:57.674Z,22.05
2022-11-16T05:42:02.443Z,22.88
2022-11-16T05:45:04.478Z,22.63
2022-11-16T05:48:05.899Z,22.60
2022-11-16T05:51:07.353Z,22.80
2022-11-16T05:54:12.659Z,22.30
2022-11-16T05:57:14.419Z,22.10
2022-11-16T06:00:16.567Z,22.75
2022-11-16T06:03:22.280Z,20.02
2022-11-16T06:06:23.752Z,22.15
2022-11-16T06:09:26.563Z,22.67
2022-11-16T06:12:29.641Z,20.77
2022-11-16T06:15:31.168Z,20.02
2022-11-16T06:18:37.710Z,22.00
2022-11-16T06:21:39.456Z,21.73
2022-11-16T06:24:47.467Z,20.52
2022-11-16T06:27:49.019Z,20.58
2022-11-16T06:30:52.657Z,22.80
2022-11-16T06:33:54.134Z,21.20
2022-11-16T06:37:00.082Z,21.92
2022-11-16T06:40:01.629Z,21.42
2022-11-16T06:43:07.745Z,21.25
2022-11-16T06:46:09.243Z,21.83
2022-11-16T06:49:12.996Z,22.25
2022-11-16T06:52:14.490Z,22.35
2022-11-16T06:55:16.859Z,22.23
2022-11-16T06:58:18.310Z,23.02
2022-11-16T07:01:20.574Z,22.42
2022-11-16T07:07:29.744Z,21.58
2022-11-16T07:10:32.038Z,22.13
2022-11-16T07:13:34.548Z,22.75
2022-11-16T07:16:36.035Z,20.88
2022-11-16T07:19:38.220Z,23.50
2022-11-16T07:22:40.863Z,23.03
2022-11-16T07:25:46.676Z,22.70
2022-11-16T07:28:50.413Z,22.73
2022-11-16T07:31:55.528Z,21.60
2022-11-16T07:35:15.334Z,22.52
2022-11-16T07:38:18.235Z,22.92
2022-11-16T07:41:20.340Z,21.35
2022-11-16T07:44:34.824Z,22.23
2022-11-16T07:47:40.787Z,23.13
2022-11-16T07:50:47.453Z,21.30
2022-11-16T07:53:53.675Z,23.35
2022-11-16T07:56:55.107Z,22.92
2022-11-16T07:59:57.040Z,23.83
2022-11-16T08:02:58.419Z,23.80
2022-11-16T08:06:03.776Z,22.92
2022-11-16T08:09:05.221Z,22.38
2022-11-16T08:15:10.482Z,22.33
2022-11-16T08:18:12.660Z,22.23
2022-11-16T08:21:15.930Z,22.02
2022-11-16T08:24:18.637Z,21.35
2022-11-16T08:27:20.925Z,23.13
2022-11-16T08:30:26.808Z,23.30
2022-11-16T08:33:29.034Z,20.40
2022-11-16T08:36:30.585Z,22.00
2022-11-16T08:39:32.759Z,21.92
2022-11-16T08:42:35.620Z,24.20
2022-11-16T08:45:39.299Z,23.38
2022-11-16T08:48:41.502Z,22.45
2022-11-16T08:51:43.726Z,23.45
2022-11-16T08:54:45.102Z,23.17
2022-11-16T08:57:46.602Z,22.73
2022-11-16T09:00:51.838Z,23.88
2022-11-16T09:03:53.463Z,22.73
2022-11-16T09:06:54.921Z,23.50
2022-11-16T09:09:56.536Z,23.52
2022-11-16T09:12:57.875Z,24.30
2022-11-16T09:16:00.335Z,25.17
2022-11-16T09:19:01.797Z,26.00
2022-11-16T09:22:03.820Z,24.75
2022-11-16T09:25:05.741Z,26.23
2022-11-16T09:28:07.161Z,25.75
2022-11-16T09:31:08.584Z,25.58
2022-11-16T09:34:09.922Z,26.23
2022-11-16T09:37:11.416Z,26.05
2022-11-16T09:40:12.788Z,27.45
2022-11-16T09:43:45.917Z,26.13
2022-11-16T09:46:56.916Z,25.67
2022-11-16T09:50:04.051Z,27.25
2022-11-16T09:53:32.759Z,25.77
2022-11-16T09:56:38.821Z,26.77
2022-11-16T10:00:11.258Z,26.25
2022-11-16T10:03:15.050Z,27.15
2022-11-16T10:06:22.650Z,27.73
2022-11-16T10:09:24.948Z,26.52
2022-11-16T10:12:40.589Z,27.53
2022-11-16T10:16:08.797Z,27.75
2022-11-16T10:19:42.435Z,27.17
2022-11-16T10:23:09.483Z,25.85
2022-11-16T10:26:26.403Z,25.13
2022-11-16T10:29:51.707Z,25.77
2022-11-16T10:32:57.986Z,26.20
2022-11-16T10:35:59.346Z,27.02
2022-11-16T10:39:00.995Z,26.10
2022-11-16T10:42:09.863Z,27.60
2022-11-16T10:45:11.211Z,25.65
2022-11-16T10:48:16.990Z,26.85
2022-11-16T10:51:18.444Z,26.95
2022-11-16T10:54:19.860Z,26.30
2022-11-16T10:57:21.340Z,27.75
2022-11-16T11:00:36.848Z,26.25
2022-11-16T11:03:38.312Z,27.50
2022-11-16T11:06:39.933Z,26.88
2022-11-16T11:09:41.369Z,26.02
2022-11-16T11:13:02.551Z,27.23
2022-11-16T11:16:17.191Z,26.85
2022-11-16T11:19:28.771Z,26.80
2022-11-16T11:22:32.717Z,26.35
2022-11-16T11:25:50.870Z,24.88
2022-11-16T11:28:52.320Z,24.80
2022-11-16T11:32:24.082Z,25.48
2022-11-16T11:35:32.222Z,24.85
2022-11-16T11:38:35.061Z,26.02
2022-11-16T11:41:47.038Z,24.67
2022-11-16T11:45:09.039Z,27.00
2022-11-16T11:48:18.965Z,25.13
2022-11-16T11:51:33.594Z,25.17
2022-11-16T11:54:46.069Z,24.35
2022-11-16T11:57:50.574Z,23.50
2022-11-16T12:01:22.183Z,23.80
2022-11-16T12:04:38.009Z,24.55
2022-11-16T12:08:16.947Z,22.45
2022-11-16T12:11:36.619Z,22.45
2022-11-16T12:15:03.987Z,23.50
2022-11-16T12:18:33.154Z,24.60
2022-11-16T12:22:25.563Z,24.23
2022-11-16T12:25:41.402Z,24.40
2022-11-16T12:28:50.861Z,24.42
2022-11-16T12:32:28.597Z,25.73
2022-11-16T12:36:17.656Z,24.88
2022-11-16T12:39:42.985Z,23.75
2022-11-16T12:42:47.377Z,26.05
2022-11-16T12:46:06.348Z,26.65
2022-11-16T12:49:41.743Z,25.27
2022-11-16T12:52:56.792Z,25.05
2022-11-16T12:56:11.008Z,24.10
2022-11-16T12:59:35.281Z,26.33
2022-11-16T13:02:59.365Z,25.92
2022-11-16T13:06:06.721Z,25.70
2022-11-16T13:09:16.122Z,26.25
2022-11-16T13:12:22.164Z,24.52
2022-11-16T13:15:32.290Z,26.88
2022-11-16T13:18:35.670Z,25.10
2022-11-16T13:25:11.424Z,27.13
2022-11-16T13:28:18.170Z,28.63
2022-11-16T13:31:28.657Z,26.35
2022-11-16T13:34:33.742Z,25.75
2022-11-16T13:37:38.104Z,28.38
2022-11-16T13:40:40.383Z,28.00
2022-11-16T13:43:48.692Z,28.20
2022-11-16T13:46:56.335Z,32.45
2022-11-16T13:50:01.900Z,29.17
2022-11-16T13:56:51.334Z,31.35
2022-11-16T14:00:08.012Z,31.98
2022-11-16T14:03:15.361Z,31.00
2022-11-16T14:06:19.719Z,29.75
2022-11-16T14:09:43.771Z,29.95
2022-11-16T14:12:52.730Z,32.92
2022-11-16T14:16:18.899Z,29.67
2022-11-16T14:19:45.084Z,30.27
2022-11-16T14:23:14.335Z,27.50
2022-11-16T14:26:18.560Z,27.30
2022-11-16T14:29:41.724Z,27.52
2022-11-16T14:32:46.297Z,27.85
2022-11-16T14:35:51.768Z,26.90
2022-11-16T14:38:53.159Z,27.52
2022-11-16T14:41:58.910Z,22.77
2022-11-16T14:45:02.370Z,24.85
2022-11-16T14:51:14.840Z,23.95
2022-11-16T14:54:22.528Z,22.75
2022-11-16T14:57:24.053Z,22.98
2022-11-16T15:00:25.470Z,22.00
2022-11-16T15:03:33.520Z,20.98
2022-11-16T15:06:43.417Z,20.67
2022-11-16T15:09:49.086Z,19.85
2022-11-16T15:12:52.532Z,19.60
2022-11-16T15:19:13.665Z,18.58
2022-11-16T15:22:17.532Z,19.85
2022-11-16T15:25:39.990Z,19.65
2022-11-16T15:28:45.789Z,19.90
2022-11-16T15:31:50.780Z,20.83
2022-11-16T15:34:54.316Z,20.58
2022-11-16T15:38:11.940Z,21.38
2022-11-16T15:41:17.977Z,20.90
2022-11-16T15:44:22.312Z,21.02
2022-11-16T15:47:24.180Z,20.55
2022-11-16T15:50:26.004Z,24.10
2022-11-16T15:53:39.820Z,23.70
2022-11-16T15:56:41.595Z,23.30
2022-11-16T15:59:48.539Z,24.02
2022-11-16T16:02:51.119Z,27.38
2022-11-16T16:05:54.083Z,24.90
2022-11-16T16:09:06.203Z,26.27
2022-11-16T16:12:20.784Z,27.02
2022-11-16T16:15:28.549Z,23.88
2022-11-16T16:18:29.905Z,27.25
2022-11-16T16:21:45.767Z,25.73
2022-11-16T16:24:47.157Z,24.88
2022-11-16T16:27:48.500Z,25.08
2022-11-16T16:30:52.850Z,23.33
2022-11-16T16:33:54.196Z,24.38
2022-11-16T16:36:55.521Z,23.17
2022-11-16T16:39:57.566Z,20.83
2022-11-16T16:42:58.884Z,22.27
2022-11-16T16:46:01.348Z,21.45
2022-11-16T16:49:02.666Z,20.63
2022-11-16T16:52:05.166Z,21.80
2022-11-16T16:55:06.787Z,21.13
2022-11-16T16:58:11.882Z,18.33
2022-11-16T17:01:13.295Z,18.23
2022-11-16T17:04:14.784Z,18.45
2022-11-16T17:07:16.466Z,19.75
2022-11-16T17:10:17.935Z,20.23
2022-11-16T17:13:19.267Z,17.98
2022-11-16T17:16:20.630Z,17.05
2022-11-16T17:19:22.095Z,17.90
2022-11-16T17:22:23.439Z,18.85
2022-11-16T17:25:24.757Z,18.15
2022-11-16T17:28:26.101Z,15.90
2022-11-16T17:31:27.421Z,14.05
2022-11-16T17:34:28.799Z,14.55
2022-11-16T17:37:30.138Z,13.45
2022-11-16T17:40:31.569Z,13.00
2022-11-16T17:43:33.333Z,11.57
2022-11-16T17:46:35.214Z,12.90
2022-11-16T17:49:36.529Z,12.38
2022-11-16T17:52:37.830Z,12.32
2022-11-16T17:55:39.155Z,12.40
2022-11-16T17:58:40.846Z,11.90
2022-11-16T18:01:42.268Z,12.80
2022-11-16T18:04:48.136Z,14.27
2022-11-16T18:07:52.159Z,11.52
2022-11-16T18:10:53.494Z,11.68
2022-11-16T18:13:57.951Z,12.13
2022-11-16T18:16:59.286Z,10.45
2022-11-16T18:20:00.623Z,10.88
2022-11-16T18:23:01.996Z,10.55
2022-11-16T18:26:07.991Z,10.70
2022-11-16T18:29:09.860Z,10.23
2022-11-16T18:32:11.185Z,10.27
2022-11-16T18:35:12.515Z,9.07
2022-11-16T18:38:13.874Z,8.63
2022-11-16T18:41:18.224Z,8.25
2022-11-16T18:44:19.599Z,8.82
2022-11-16T18:47:20.947Z,8.05
2022-11-16T18:50:26.697Z,8.35
2022-11-16T18:53:33.340Z,7.80
2022-11-16T18:56:34.987Z,7.30
2022-11-16T18:59:36.462Z,7.53
2022-11-16T19:02:37.875Z,7.63
2022-11-16T19:05:40.680Z,7.60
2022-11-16T19:08:44.084Z,8.25
2022-11-16T19:11:46.031Z,7.22
2022-11-16T19:14:47.365Z,6.97
2022-11-16T19:18:14.732Z,6.45
2022-11-16T19:21:12.385Z,6.65
2022-11-16T19:24:13.733Z,7.50
2022-11-16T19:27:15.122Z,7.10
2022-11-16T19:30:16.958Z,7.80
2022-11-16T19:33:18.305Z,7.60
2022-11-16T19:36:19.665Z,7.15
2022-11-16T19:39:21.025Z,8.15
2022-11-16T19:42:22.344Z,8.88
2022-11-16T19:45:23.709Z,8.40
2022-11-16T19:48:25.070Z,8.00
2022-11-16T19:51:29.293Z,8.82
2022-11-16T19:54:30.692Z,9.00
2022-11-16T19:57:32.060Z,9.75
2022-11-16T20:00:33.418Z,9.10
2022-11-16T20:03:35.465Z,7.85
2022-11-16T20:06:38.419Z,8.05
2022-11-16T20:09:39.761Z,8.15
2022-11-16T20:12:41.108Z,8.00
2022-11-16T20:15:42.466Z,8.50
2022-11-16T20:18:44.965Z,9.60
2022-11-16T20:21:46.517Z,8.80
2022-11-16T20:24:47.930Z,9.45
2022-11-16T20:27:49.339Z,8.95
2022-11-16T20:30:50.754Z,8.15
2022-11-16T20:33:57.230Z,7.88
2022-11-16T20:36:58.649Z,8.18
2022-11-16T20:39:59.994Z,8.13
2022-11-16T20:43:01.362Z,8.20
2022-11-16T20:46:02.683Z,7.85
2022-11-16T20:49:04.138Z,8.35
2022-11-16T20:52:05.615Z,8.00
2022-11-16T20:55:07.211Z,8.57
2022-11-16T20:58:08.560Z,8.48
2022-11-16T21:01:21.661Z,9.45
2022-11-16T21:04:23.134Z,8.57
2022-11-16T21:07:24.583Z,8.10
2022-11-16T21:10:26.242Z,9.38
2022-11-16T21:13:27.600Z,8.43
2022-11-16T21:16:29.003Z,8.27
2022-11-16T21:19:30.351Z,7.20
2022-11-16T21:22:32.748Z,7.53
2022-11-16T21:25:34.242Z,7.37
2022-11-16T21:28:35.635Z,6.70
2022-11-16T21:31:37.060Z,7.10
2022-11-16T21:34:40.240Z,6.18
2022-11-16T21:40:43.897Z,6.75
2022-11-16T21:43:45.660Z,6.50
2022-11-16T21:46:46.979Z,6.13
2022-11-16T21:50:16.731Z,6.50
2022-11-16T21:53:09.989Z,6.82
2022-11-16T21:56:16.382Z,6.57
2022-11-16T21:59:17.729Z,5.82
2022-11-16T22:02:19.113Z,6.05
2022-11-16T22:05:20.632Z,5.82
2022-11-16T22:08:21.978Z,7.75
2022-11-16T22:11:23.382Z,6.57
2022-11-16T22:14:24.722Z,6.57
2022-11-16T22:17:26.232Z,5.88
2022-11-16T22:20:27.551Z,6.43
2022-11-16T22:23:29.478Z,6.70
2022-11-16T22:26:30.894Z,6.07
2022-11-16T22:29:32.263Z,5.47
2022-11-16T22:32:33.640Z,5.22
2022-11-16T22:35:37.200Z,4.97
2022-11-16T22:38:38.571Z,5.43
2022-11-16T22:41:39.904Z,5.18
2022-11-16T22:44:41.224Z,4.85
2022-11-16T22:47:42.629Z,4.47
2022-11-16T22:50:44.560Z,4.80
2022-11-16T22:53:46.218Z,4.88
2022-11-16T22:56:47.592Z,4.75
2022-11-16T22:59:48.933Z,4.90
2022-11-16T23:02:51.709Z,4.63
2022-11-16T23:05:53.045Z,4.53
2022-11-16T23:08:54.448Z,4.40
2022-11-16T23:11:55.810Z,4.20
2022-11-16T23:14:57.138Z,4.40
2022-11-16T23:17:58.466Z,5.40
2022-11-16T23:20:59.814Z,4.07
2022-11-16T23:24:01.223Z,4.03
2022-11-16T23:27:03.595Z,4.30
2022-11-16T23:30:12.191Z,4.50
2022-11-16T23:33:14.327Z,4.32
2022-11-16T23:36:15.739Z,4.70
2022-11-16T23:39:17.144Z,4.32
2022-11-16T23:42:18.503Z,4.95
2022-11-16T23:45:19.836Z,4.63
2022-11-16T23:48:21.181Z,4.03
2022-11-16T23:51:23.227Z,5.22
2022-11-16T23:54:24.588Z,4.68
2022-11-16T23:57:25.904Z,5.07
